La Conner, Washington
Current Conditions -  °F | °C
As of 2:35 AM on Thursday 18 Dec 2014 (Local Time) from KBVS Reporting Station
Overcast Overcast  
Wind Chill: 45°   Ceiling: 1600
Heat Index: 45°   Visibility: 6mi
Dew Point: 45°   Wind: 3mph
Humidity: 100%   Direction: 100°E
Pressure: 29.94"   Gusts: NA
Location:  48.39°N, 122.5°W
Report Text: KBVS 181035Z AUTO 10003KT 6SM OVC016 07/07 A2994 RMK A01 P002
Loading
Personal Weather Stations






























Interactive Weather Map New forecast layout! Learn more

10-Day Weather Forecast

Advertisements
Track Severe Weather on mobile